Cloverdale, Alabama
Current Conditions -  °F | °C
As of 7:53 PM on Saturday 25 Oct 2014 (Local Time) from KMSL Reporting Station
Broken Clouds Broken Clouds  
Wind Chill: 70°   Ceiling: 4600
Heat Index: 70°   Visibility: 10mi
Dew Point: 61°   Wind: 0mph
Humidity: 73%   Direction: NA
Pressure: 30.05"   Gusts: NA
Location:  34.94°N, 87.77°W
Report Text: KMSL 260053Z AUTO 00000KT 10SM BKN046 21/16 A3005 RMK AO2 SLP174 T02110161
Loading
Personal Weather Stations






























Interactive Weather Map
Tropical Storm Tracking
New forecast layout! Learn more

10-Day Weather Forecast

Advertisements
Track Severe Weather on mobile